Terminal Aerodrome Forecast
Issued by NWS Charleston, WV

Current Version | Previous Version | Text Only | Print | Product List | Glossary Off
Versions: 1 2 3 4 5 6 7 8 9 10 11 12 13 14 15 16 17 18 19 20 21 22 23 24 25 26

495
FTUS41 KRLX 290539 AAB
TAFPKB
TAF AMD
KPKB 290539Z 2906/3006 16004KT 6SM SHRA VCTS OVC080CB
     FM290700 16004KT 3SM SHRA VCTS OVC050CB
     FM291000 18006KT P6SM VCTS BKN080CB
     FM292000 20004KT P6SM SCT080=

USA.gov is the U.S. government's official web portal to all federal, state and local government web resources and services.